Time;durP1;ratioP1;P1;durP2;ratioP2;P2;SDS_P1;SDS_P2;PMS_P1;PMS_P2;Temp;Humidity;BMP_temperature;BMP_pressure;BME280_temperature;BME280_humidity;BME280_pressure;Samples;Min_cycle;Max_cycle;Signal;HPM_P1;HPM_P2
2021/07/02 00:00:54;;;;;;;7.45;2.10;;;;;;;24.13;51.33;100206.66;5070765;28;20391;-82
2021/07/02 00:03:39;;;;;;;7.28;2.30;;;;;;;24.18;51.28;100211.44;5070424;28;20391;-81
2021/07/02 00:06:23;;;;;;;7.53;1.88;;;;;;;24.13;51.58;100214.88;5069723;28;20398;-82
2021/07/02 00:09:06;;;;;;;8.57;2.05;;;;;;;24.15;51.23;100214.66;5070907;28;20389;-82
2021/07/02 00:11:49;;;;;;;7.00;2.30;;;;;;;24.11;51.08;100202.47;5110805;27;20376;-84
2021/07/02 00:14:32;;;;;;;5.75;1.73;;;;;;;24.24;51.39;100207.81;5071003;28;20393;-82
2021/07/02 00:17:15;;;;;;;5.63;1.95;;;;;;;24.29;51.15;100211.56;5111233;27;20384;-81
2021/07/02 00:19:55;;;;;;;7.30;2.90;;;;;;;24.27;53.62;100208.19;5111575;27;20402;-79
2021/07/02 00:22:39;;;;;;;17.52;3.35;;;;;;;24.24;54.55;100207.81;5070711;28;20394;-84
2021/07/02 00:25:24;;;;;;;10.35;2.42;;;;;;;24.29;54.52;100211.56;5070408;28;20396;-84
2021/07/02 00:28:05;;;;;;;9.60;2.97;;;;;;;24.25;55.99;100209.47;5071032;28;20409;-82
2021/07/02 00:30:50;;;;;;;17.58;3.35;;;;;;;24.13;58.91;100214.88;5070738;28;20386;-81
2021/07/02 00:33:29;;;;;;;11.07;3.08;;;;;;;24.20;58.36;100212.91;5070991;28;20391;-81
2021/07/02 00:36:31;;;;;;;14.15;3.50;;;;;;;24.20;58.08;100198.34;5070381;28;20386;-81
2021/07/02 00:39:11;;;;;;;10.15;2.42;;;;;;;24.14;57.67;100199.28;5070978;28;20390;-81
2021/07/02 00:41:55;;;;;;;8.02;2.30;;;;;;;24.15;57.04;100195.44;5070904;28;20393;-80
2021/07/02 00:44:46;;;;;;;10.20;2.55;;;;;;;24.09;56.01;100196.38;5069976;28;20709;-80
2021/07/02 00:47:27;;;;;;;10.40;2.70;;;;;;;24.10;55.79;100195.28;5070948;28;20138;-81
2021/07/02 00:50:11;;;;;;;14.18;2.53;;;;;;;24.08;56.18;100197.41;5070582;28;20392;-82
2021/07/02 00:52:52;;;;;;;8.18;2.00;;;;;;;24.06;55.96;100192.13;5071084;28;20397;-80
2021/07/02 00:55:35;;;;;;;9.45;2.13;;;;;;;24.15;55.87;100196.28;5091166;27;20385;-81
2021/07/02 00:58:18;;;;;;;5.95;2.03;;;;;;;24.18;55.30;100193.09;5071092;28;20398;-83
2021/07/02 01:00:55;;;;;;;8.88;2.20;;;;;;;24.11;55.14;100188.75;5111696;27;20386;-82
2021/07/02 01:03:35;;;;;;;4.57;1.67;;;;;;;24.11;55.64;100192.34;5111574;27;20843;-81
2021/07/02 01:06:16;;;;;;;7.88;2.00;;;;;;;23.96;55.61;100191.81;5110642;27;20861;-79
2021/07/02 01:08:58;;;;;;;13.48;2.40;;;;;;;23.99;55.53;100185.03;5071017;28;20399;-80
2021/07/02 01:11:42;;;;;;;7.75;2.05;;;;;;;23.99;54.35;100188.63;5111545;27;20385;-82
2021/07/02 01:14:27;;;;;;;6.82;1.95;;;;;;;23.95;53.94;100188.22;5173004;27;20406;-79
2021/07/02 01:17:07;;;;;;;8.60;2.28;;;;;;;23.93;52.92;100198.59;5071054;28;20394;-82
2021/07/02 01:19:54;;;;;;;10.90;1.90;;;;;;;23.72;52.36;100200.88;5070942;28;20401;-82
2021/07/02 01:22:47;;;;;;;7.10;2.30;;;;;;;23.36;52.16;100204.31;5070710;28;20379;-83
2021/07/02 01:25:35;;;;;;;7.30;1.83;;;;;;;23.12;52.54;100207.81;5090532;27;20714;-81
2021/07/02 01:28:24;;;;;;;7.35;1.70;;;;;;;23.00;52.81;100207.66;5111254;27;20384;-82
2021/07/02 01:31:09;;;;;;;9.27;1.90;;;;;;;22.89;52.98;100202.84;5070938;28;20393;-81
2021/07/02 01:33:53;;;;;;;6.05;2.00;;;;;;;22.79;53.39;100205.22;5111599;27;20380;-81
2021/07/02 01:36:38;;;;;;;7.70;1.85;;;;;;;22.82;53.16;100212.16;5111321;27;20387;-81
2021/07/02 01:39:26;;;;;;;12.93;2.80;;;;;;;22.84;53.12;100213.63;5131733;27;20124;-82
2021/07/02 01:42:08;;;;;;;10.32;1.95;;;;;;;22.74;52.88;100218.72;5066719;28;20401;-83
2021/07/02 01:44:53;;;;;;;6.70;1.80;;;;;;;22.74;52.97;100212.44;5069704;28;20391;-80
2021/07/02 01:47:36;;;;;;;8.10;1.60;;;;;;;22.79;52.88;100212.63;5069941;28;20902;-82
2021/07/02 01:50:25;;;;;;;8.35;2.08;;;;;;;22.83;52.61;100211.97;5070704;28;20394;-82
2021/07/02 01:53:09;;;;;;;10.32;2.00;;;;;;;22.73;52.81;100213.47;5131666;27;20127;-81
2021/07/02 01:55:55;;;;;;;5.45;1.90;;;;;;;22.69;53.11;100220.44;5070556;28;20869;-82
2021/07/02 01:58:39;;;;;;;9.07;2.10;;;;;;;22.56;53.66;100205.72;5069335;28;20390;-81
2021/07/02 02:01:33;;;;;;;7.25;2.03;;;;;;;22.52;53.79;100204.47;5095220;27;1664311;-81
2021/07/02 02:04:23;;;;;;;5.60;1.55;;;;;;;22.68;53.54;100208.66;5109727;27;20406;-81
2021/07/02 02:07:07;;;;;;;5.97;1.75;;;;;;;22.78;53.31;100202.72;5069309;28;20393;-80
2021/07/02 02:09:50;;;;;;;4.07;1.42;;;;;;;22.80;53.26;100209.66;5069437;28;20394;-78
2021/07/02 02:12:33;;;;;;;4.80;1.88;;;;;;;22.88;53.19;100225.00;5069935;28;20749;-80
2021/07/02 02:15:18;;;;;;;6.63;2.00;;;;;;;22.96;53.07;100219.28;5071005;28;20386;-82
2021/07/02 02:18:04;;;;;;;4.00;1.38;;;;;;;22.79;53.61;100216.16;5111685;27;20834;-81
2021/07/02 02:20:51;;;;;;;7.28;1.75;;;;;;;22.71;53.49;100219.16;5070426;28;20387;-81
2021/07/02 02:23:35;;;;;;;5.28;1.65;;;;;;;22.69;53.65;100225.91;5070608;28;20907;-82
2021/07/02 02:26:17;;;;;;;8.43;1.50;;;;;;;22.73;53.74;100225.25;5070498;28;20912;-80
2021/07/02 02:29:02;;;;;;;4.82;1.77;;;;;;;22.55;53.37;100216.88;5070920;28;20386;-81
2021/07/02 02:31:46;;;;;;;6.00;1.63;;;;;;;22.32;54.04;100217.34;5111271;27;20728;-81
2021/07/02 02:34:31;;;;;;;6.70;1.88;;;;;;;22.26;54.48;100218.22;5111137;27;20744;-83
2021/07/02 02:37:15;;;;;;;4.72;1.50;;;;;;;22.35;54.43;100218.81;5173318;27;20510;-82
2021/07/02 02:39:55;;;;;;;6.78;1.75;;;;;;;22.33;54.55;100219.03;5091319;28;20892;-83
2021/07/02 02:42:40;;;;;;;6.28;1.65;;;;;;;22.38;54.39;100221.97;5070714;28;20386;-78
2021/07/02 02:45:24;;;;;;;8.80;1.88;;;;;;;22.44;54.31;100228.50;5111178;27;20863;-80
2021/07/02 02:48:10;;;;;;;5.00;1.52;;;;;;;22.55;53.88;100231.38;5070926;28;20393;-81
2021/07/02 02:50:53;;;;;;;4.97;1.67;;;;;;;22.52;53.97;100220.03;5071001;28;20387;-80
2021/07/02 02:53:38;;;;;;;8.00;1.83;;;;;;;22.46;54.18;100221.75;5070785;28;20378;-77
2021/07/02 02:56:22;;;;;;;6.53;1.70;;;;;;;22.37;54.62;100239.41;5111249;27;20390;-81
2021/07/02 02:59:05;;;;;;;6.32;2.00;;;;;;;22.26;55.34;100234.63;5070755;28;20390;-82
2021/07/02 03:01:50;;;;;;;6.57;1.83;;;;;;;22.35;54.88;100236.06;5070251;28;20716;-81
2021/07/02 03:04:35;;;;;;;6.47;1.70;;;;;;;22.33;54.97;100237.34;5071003;28;20390;-82
2021/07/02 03:07:21;;;;;;;8.05;1.70;;;;;;;22.20;54.56;100240.94;5070670;28;20412;-82
2021/07/02 03:10:06;;;;;;;5.05;1.77;;;;;;;22.00;54.58;100246.41;5110956;27;20388;-80
2021/07/02 03:13:10;;;;;;;4.20;1.40;;;;;;;21.79;55.04;100249.34;5070883;28;20393;-81
2021/07/02 03:15:54;;;;;;;5.95;1.52;;;;;;;21.47;55.87;100252.88;5111235;27;20388;-83
2021/07/02 03:18:35;;;;;;;6.18;1.55;;;;;;;21.30;56.51;100259.78;5071056;28;20418;-82
2021/07/02 03:21:16;;;;;;;6.22;1.58;;;;;;;21.29;56.54;100249.88;5071031;28;20402;-82
2021/07/02 03:23:56;;;;;;;7.28;1.80;;;;;;;21.27;56.45;100251.97;5070530;28;20414;-83
2021/07/02 03:26:40;;;;;;;9.43;2.58;;;;;;;21.29;56.73;100258.06;5070222;28;20389;-81
2021/07/02 03:29:23;;;;;;;6.75;1.98;;;;;;;21.22;57.23;100259.94;5098993;27;1603675;-81
2021/07/02 03:32:09;;;;;;;7.82;1.73;;;;;;;21.15;57.00;100257.22;5070649;28;20393;-80
2021/07/02 03:34:54;;;;;;;16.23;1.90;;;;;;;21.02;57.29;100254.41;5070954;28;20397;-82
2021/07/02 03:37:42;;;;;;;8.73;1.70;;;;;;;20.92;57.89;100264.00;5131808;27;20174;-81
2021/07/02 03:40:26;;;;;;;13.52;1.95;;;;;;;20.87;57.67;100263.75;5070643;28;20382;-83
2021/07/02 03:43:16;;;;;;;7.20;1.95;;;;;;;20.94;57.94;100257.28;5131793;27;20462;-80
2021/07/02 03:45:56;;;;;;;11.90;1.83;;;;;;;21.02;57.95;100262.59;5071151;28;20387;-80
2021/07/02 03:48:40;;;;;;;10.38;1.88;;;;;;;20.99;58.24;100262.13;5069768;28;20405;-81
2021/07/02 03:51:24;;;;;;;8.77;1.75;;;;;;;21.01;58.09;100269.06;5070993;28;20722;-82
2021/07/02 03:54:10;;;;;;;4.50;1.75;;;;;;;21.02;57.93;100259.00;5131745;27;20127;-82
2021/07/02 03:57:13;;;;;;;7.00;1.80;;;;;;;20.88;57.99;100262.72;5111502;27;20390;-78
2021/07/02 03:59:55;;;;;;;9.18;2.13;;;;;;;20.71;58.48;100268.50;5070689;28;20401;-82
2021/07/02 04:02:35;;;;;;;4.35;1.48;;;;;;;20.80;58.33;100271.94;5071093;28;20386;-82
2021/07/02 04:05:41;;;;;;;6.95;1.60;;;;;;;20.78;58.11;100274.03;5069770;28;20394;-80
2021/07/02 04:08:21;;;;;;;8.20;1.60;;;;;;;20.95;58.16;100277.25;5070959;28;20745;-82
2021/07/02 04:11:06;;;;;;;6.10;1.70;;;;;;;20.77;58.62;100280.50;5071073;28;20391;-82
2021/07/02 04:13:47;;;;;;;7.38;2.08;;;;;;;20.65;58.60;100285.72;5071080;28;20402;-82
2021/07/02 04:16:31;;;;;;;8.02;1.60;;;;;;;20.58;58.94;100297.63;5070372;28;20389;-83
2021/07/02 04:19:15;;;;;;;4.68;1.30;;;;;;;20.74;58.25;100289.09;5111237;27;20719;-81
2021/07/02 04:21:56;;;;;;;6.10;1.35;;;;;;;21.00;57.96;100293.84;5071151;28;20387;-80
2021/07/02 04:24:39;;;;;;;7.90;1.50;;;;;;;21.33;57.22;100306.59;5070680;28;20869;-82
2021/07/02 04:27:22;;;;;;;4.70;1.50;;;;;;;21.73;56.25;100304.81;5070591;28;20375;-79
2021/07/02 04:30:07;;;;;;;5.15;1.50;;;;;;;22.23;54.62;100308.88;5111267;27;20376;-82
2021/07/02 04:32:50;;;;;;;4.25;1.73;;;;;;;22.76;53.30;100309.69;5070668;28;20383;-82
2021/07/02 04:35:33;;;;;;;3.30;1.30;;;;;;;23.39;51.28;100302.50;5070903;28;20409;-83
2021/07/02 04:38:18;;;;;;;6.55;1.50;;;;;;;23.62;49.91;100310.19;5070632;28;20397;-82
2021/07/02 04:40:58;;;;;;;5.53;1.55;;;;;;;23.89;49.24;100320.75;5110780;27;20398;-82
2021/07/02 04:43:42;;;;;;;5.07;1.40;;;;;;;24.31;48.61;100318.34;5111290;27;20376;-82
2021/07/02 04:46:27;;;;;;;5.13;1.63;;;;;;;24.89;47.01;100324.31;5070723;28;20386;-82
2021/07/02 04:49:10;;;;;;;3.95;1.35;;;;;;;25.37;45.53;100327.13;5110246;27;20388;-81
2021/07/02 04:51:54;;;;;;;4.03;1.67;;;;;;;25.80;44.76;100322.34;5070648;28;20738;-81
2021/07/02 04:54:39;;;;;;;4.80;1.77;;;;;;;26.12;43.67;100323.72;5070604;28;20900;-80
2021/07/02 04:57:22;;;;;;;5.28;1.55;;;;;;;26.30;43.72;100331.06;5064633;28;20398;-81
2021/07/02 05:00:08;;;;;;;48.67;34.50;;;;;;;26.49;42.76;100329.91;5110473;27;20390;-81
2021/07/02 05:02:51;;;;;;;25.15;15.48;;;;;;;26.84;41.63;100321.63;5069191;28;20389;-82
2021/07/02 05:05:36;;;;;;;8.13;1.98;;;;;;;27.20;41.59;100321.34;5070698;28;20398;-79
2021/07/02 05:08:23;;;;;;;7.53;2.08;;;;;;;27.82;40.11;100310.47;5069923;28;20387;-82
2021/07/02 05:11:03;;;;;;;5.68;2.10;;;;;;;27.82;40.43;100321.50;5070843;28;20395;-79
2021/07/02 05:13:46;;;;;;;7.20;1.35;;;;;;;27.98;40.23;100320.69;5069363;28;20393;-81
2021/07/02 05:16:30;;;;;;;9.15;2.10;;;;;;;28.57;39.91;100325.56;5108561;27;20882;-81
2021/07/02 05:19:14;;;;;;;4.50;1.50;;;;;;;28.80;39.36;100319.88;5088388;28;20389;-80
2021/07/02 05:21:59;;;;;;;7.88;1.60;;;;;;;29.34;38.78;100320.06;5068300;28;21099;-83
2021/07/02 05:24:56;;;;;;;7.68;2.22;;;;;;;29.16;41.28;100323.16;5088401;27;20393;-83
2021/07/02 05:27:40;;;;;;;13.43;2.38;;;;;;;29.32;42.57;100323.09;5068097;28;20398;-80
2021/07/02 05:30:20;;;;;;;13.00;2.47;;;;;;;29.87;42.00;100320.16;5071143;28;20418;-83
2021/07/02 05:33:00;;;;;;;4.63;2.10;;;;;;;30.92;40.12;100311.06;5070668;28;20393;-82
2021/07/02 05:35:44;;;;;;;6.97;2.22;;;;;;;31.07;40.26;100324.16;5063687;28;20403;-81
2021/07/02 05:38:24;;;;;;;7.25;2.30;;;;;;;32.35;38.44;100317.59;5071275;28;20411;-82
2021/07/02 05:41:08;;;;;;;7.00;2.42;;;;;;;32.86;38.24;100321.19;5070986;28;20391;-83
2021/07/02 05:43:50;;;;;;;9.07;1.92;;;;;;;32.78;38.55;100324.53;5076388;27;1585303;-81
2021/07/02 05:46:32;;;;;;;7.22;2.42;;;;;;;32.73;38.55;100333.72;5111358;27;20384;-81
2021/07/02 05:49:16;;;;;;;8.13;2.33;;;;;;;33.88;36.72;100328.00;5070304;28;20403;-83
2021/07/02 05:51:54;;;;;;;5.93;1.92;;;;;;;35.41;34.27;100335.53;5071321;28;20881;-82
2021/07/02 05:54:39;;;;;;;9.63;2.85;;;;;;;35.73;34.02;100334.84;5115275;27;20602;-81
2021/07/02 05:57:23;;;;;;;10.70;2.25;;;;;;;35.29;34.31;100335.13;5090898;27;20378;-78
2021/07/02 06:00:08;;;;;;;7.65;2.20;;;;;;;36.96;31.36;100327.84;5111298;27;20382;-80
2021/07/02 06:02:55;;;;;;;9.00;1.88;;;;;;;38.60;29.79;100331.16;5130804;27;20157;-81
2021/07/02 06:05:38;;;;;;;7.00;2.17;;;;;;;39.88;27.75;100336.47;5070785;28;20408;-82
2021/07/02 06:08:21;;;;;;;11.70;2.53;;;;;;;41.61;25.50;100332.97;5064907;28;20932;-79
2021/07/02 06:11:05;;;;;;;6.88;1.90;;;;;;;40.24;26.51;100334.22;5071201;28;20881;-84
2021/07/02 06:13:49;;;;;;;6.43;2.05;;;;;;;40.19;26.79;100348.44;5070707;28;20386;-82
2021/07/02 06:16:33;;;;;;;10.23;2.40;;;;;;;39.73;27.54;100351.03;5111212;27;20388;-81
2021/07/02 06:19:12;;;;;;;13.00;2.45;;;;;;;39.98;27.00;100353.03;5071225;28;20391;-79
2021/07/02 06:21:57;;;;;;;7.47;2.25;;;;;;;41.64;25.21;100349.19;5070767;28;20881;-82
2021/07/02 06:24:37;;;;;;;9.75;2.22;;;;;;;40.85;26.15;100347.88;5090324;28;20389;-85
2021/07/02 06:27:21;;;;;;;5.75;2.10;;;;;;;43.26;24.25;100356.19;5089082;27;20393;-81
2021/07/02 06:30:07;;;;;;;8.77;2.30;;;;;;;42.64;24.78;100359.22;5066544;28;20398;-83
2021/07/02 06:32:51;;;;;;;6.30;1.83;;;;;;;42.23;25.69;100367.72;5065201;28;20401;-81
2021/07/02 06:35:31;;;;;;;8.02;2.30;;;;;;;42.26;25.93;100361.41;5071284;28;20396;-83
2021/07/02 06:38:16;;;;;;;7.20;1.90;;;;;;;43.64;24.31;100363.50;5069378;28;20402;-80
2021/07/02 06:40:57;;;;;;;7.22;1.70;;;;;;;42.73;25.23;100361.97;5054336;28;20933;-83
2021/07/02 06:43:41;;;;;;;6.78;1.98;;;;;;;42.40;25.52;100367.56;5067617;28;20391;-84
2021/07/02 06:46:25;;;;;;;6.97;2.47;;;;;;;42.04;25.59;100367.38;5131468;27;20400;-81
2021/07/02 06:49:06;;;;;;;8.77;1.95;;;;;;;43.10;25.17;100366.53;5069870;28;20394;-79
2021/07/02 06:51:49;;;;;;;6.90;1.77;;;;;;;45.63;22.59;100361.19;5061497;28;20396;-83
2021/07/02 06:54:35;;;;;;;4.88;1.98;;;;;;;43.30;24.42;100373.31;5071044;28;20387;-81
2021/07/02 06:57:19;;;;;;;4.97;1.95;;;;;;;45.07;22.00;100371.91;5064969;28;20398;-85
2021/07/02 07:00:04;;;;;;;6.28;2.20;;;;;;;43.26;24.24;100372.31;5080364;27;20387;-79
2021/07/02 07:02:49;;;;;;;6.30;1.85;;;;;;;43.44;24.29;100378.59;5062786;28;20881;-81
2021/07/02 07:05:34;;;;;;;7.40;2.20;;;;;;;42.47;25.18;100383.97;5068086;28;20398;-82
2021/07/02 07:08:13;;;;;;;5.65;1.90;;;;;;;43.04;24.40;100375.56;5086393;28;20397;-82
2021/07/02 07:10:57;;;;;;;7.57;2.28;;;;;;;43.79;23.26;100391.94;5111306;27;20390;-82
2021/07/02 07:13:38;;;;;;;12.85;2.45;;;;;;;46.50;20.75;100388.31;5104860;27;20393;-82
2021/07/02 07:16:21;;;;;;;7.63;2.10;;;;;;;44.87;22.41;100389.16;5064950;28;20391;-84
2021/07/02 07:19:06;;;;;;;5.85;1.92;;;;;;;48.04;19.88;100381.78;5068662;28;20892;-83
2021/07/02 07:21:45;;;;;;;7.40;2.13;;;;;;;46.64;20.87;100385.78;5070920;28;20390;-79
2021/07/02 07:24:29;;;;;;;5.63;1.85;;;;;;;48.71;19.22;100379.03;5070647;28;20399;-79
2021/07/02 07:27:08;;;;;;;7.28;2.20;;;;;;;46.99;20.14;100380.78;5069516;28;20400;-83
2021/07/02 07:29:51;;;;;;;6.13;2.38;;;;;;;47.81;19.07;100383.88;5107890;27;20388;-83
2021/07/02 07:32:37;;;;;;;7.32;1.77;;;;;;;47.92;19.20;100372.66;5130347;27;20884;-81
2021/07/02 07:35:24;;;;;;;5.60;1.90;;;;;;;47.73;19.12;100382.09;5070114;28;20383;-82
2021/07/02 07:38:09;;;;;;;8.38;1.88;;;;;;;46.37;20.14;100374.28;5057968;28;20398;-83
2021/07/02 07:40:52;;;;;;;8.18;2.45;;;;;;;46.80;20.51;100380.84;5069770;28;20391;-82
2021/07/02 07:43:36;;;;;;;5.93;1.60;;;;;;;49.11;18.71;100372.53;5070761;28;20385;-82
2021/07/02 07:46:20;;;;;;;9.65;2.22;;;;;;;49.60;17.41;100370.13;5070207;28;20391;-83
2021/07/02 07:49:04;;;;;;;6.45;2.13;;;;;;;51.01;16.87;100365.13;5069305;28;20414;-83
2021/07/02 07:51:58;;;;;;;6.72;2.17;;;;;;;49.64;17.75;100379.53;5069877;28;20397;-84
2021/07/02 07:54:39;;;;;;;12.75;2.45;;;;;;;48.94;18.30;100373.19;5070608;28;20401;-83
2021/07/02 07:57:22;;;;;;;7.88;2.15;;;;;;;47.73;19.16;100369.91;5071117;28;20383;-84
2021/07/02 08:00:08;;;;;;;5.53;2.00;;;;;;;46.51;20.12;100368.09;5070785;28;20386;-82
2021/07/02 08:02:52;;;;;;;5.95;1.83;;;;;;;47.59;19.15;100361.97;5087815;27;20403;-84
2021/07/02 08:05:37;;;;;;;7.75;1.70;;;;;;;45.51;20.40;100360.47;5106847;27;20406;-81
2021/07/02 08:08:21;;;;;;;5.85;2.13;;;;;;;44.53;21.58;100365.09;5070973;28;20391;-83
2021/07/02 08:11:00;;;;;;;13.93;2.67;;;;;;;44.69;21.48;100368.00;5114469;27;20488;-85
2021/07/02 08:13:43;;;;;;;8.98;1.98;;;;;;;44.04;22.36;100372.06;5072809;28;20391;-85
2021/07/02 08:16:24;;;;;;;7.25;2.15;;;;;;;41.80;23.68;100362.38;5112701;27;20380;-85
2021/07/02 08:19:08;;;;;;;7.20;2.15;;;;;;;38.25;28.40;100366.50;5071441;28;20386;-84
2021/07/02 08:21:53;;;;;;;6.80;2.00;;;;;;;37.15;30.02;100373.38;5090522;27;20380;-84
2021/07/02 08:24:33;;;;;;;7.55;2.60;;;;;;;36.29;31.53;100369.28;5071187;28;20413;-79
2021/07/02 08:27:18;;;;;;;7.65;2.13;;;;;;;36.18;31.61;100362.16;5082783;27;20394;-81
2021/07/02 08:29:58;;;;;;;9.85;2.42;;;;;;;35.76;33.15;100362.19;5070672;28;20386;-82
2021/07/02 08:32:38;;;;;;;6.15;2.13;;;;;;;35.83;33.52;100371.88;5121812;27;20401;-84
2021/07/02 08:35:22;;;;;;;6.75;2.30;;;;;;;36.05;32.54;100364.91;5111909;27;20392;-84
2021/07/02 08:38:06;;;;;;;15.10;3.47;;;;;;;34.07;35.15;100372.78;5110886;27;20386;-80
2021/07/02 08:40:45;;;;;;;7.20;2.70;;;;;;;32.92;37.34;100374.84;5111721;27;20392;-81
2021/07/02 08:43:25;;;;;;;7.88;2.60;;;;;;;32.83;37.92;100370.97;5070700;28;20401;-80
2021/07/02 08:46:12;;;;;;;11.68;2.50;;;;;;;33.36;36.56;100371.13;5111298;27;20394;-81
2021/07/02 08:48:52;;;;;;;7.40;2.92;;;;;;;32.66;37.47;100365.72;5110552;27;20391;-83
2021/07/02 08:51:32;;;;;;;9.88;3.13;;;;;;;31.33;39.12;100371.19;5070995;28;20425;-80
2021/07/02 08:54:17;;;;;;;8.35;3.45;;;;;;;31.37;39.72;100369.56;5070828;28;20382;-82
2021/07/02 08:56:58;;;;;;;10.93;2.20;;;;;;;31.70;39.99;100356.38;5110601;27;20380;-78
2021/07/02 08:59:43;;;;;;;10.10;3.42;;;;;;;31.45;41.08;100363.50;5131544;27;20181;-84
2021/07/02 09:02:46;;;;;;;13.77;2.85;;;;;;;31.61;40.98;100363.56;5069643;28;20398;-80
2021/07/02 09:05:36;;;;;;;12.38;3.97;;;;;;;31.14;41.74;100367.19;5101824;27;1521434;-81
2021/07/02 09:08:19;;;;;;;13.80;3.63;;;;;;;30.79;42.25;100361.41;5110088;27;20392;-79
2021/07/02 09:10:59;;;;;;;17.80;3.90;;;;;;;31.26;41.51;100364.19;5070255;28;20391;-84
2021/07/02 09:13:41;;;;;;;9.15;3.63;;;;;;;31.64;41.08;100376.91;5069834;28;20405;-83
2021/07/02 09:16:47;;;;;;;9.23;4.13;;;;;;;31.25;41.17;100360.63;5070238;28;20386;-79
2021/07/02 09:19:35;;;;;;;17.70;3.50;;;;;;;31.35;41.73;100366.22;5111444;27;20143;-83
2021/07/02 09:22:19;;;;;;;10.05;4.13;;;;;;;31.02;42.00;100365.75;5070011;28;20126;-80
2021/07/02 09:24:59;;;;;;;15.07;4.45;;;;;;;31.30;41.26;100363.41;5110834;27;20392;-78
2021/07/02 09:27:43;;;;;;;12.90;3.83;;;;;;;31.07;41.70;100365.78;5070013;28;20379;-82
2021/07/02 09:30:36;;;;;;;13.05;4.05;;;;;;;30.85;41.80;100374.19;5070303;28;20383;-79
2021/07/02 09:33:19;;;;;;;14.60;4.35;;;;;;;30.56;41.53;100372.88;5108405;27;20388;-82
2021/07/02 09:35:59;;;;;;;10.93;3.08;;;;;;;30.69;42.02;100375.22;5068950;28;20394;-80
2021/07/02 09:38:48;;;;;;;15.10;3.47;;;;;;;30.87;41.85;100369.22;5069682;28;20389;-79
2021/07/02 09:41:34;;;;;;;16.67;4.05;;;;;;;30.95;41.46;100363.22;5070566;28;20393;-85
2021/07/02 09:44:18;;;;;;;12.18;3.65;;;;;;;31.08;42.53;100373.00;5131521;27;20383;-85
2021/07/02 09:46:57;;;;;;;22.15;4.20;;;;;;;30.75;43.03;100368.59;5069912;28;20390;-86
2021/07/02 09:50:19;;;;;;;9.80;3.50;;;;;;;30.89;42.68;100369.78;5070675;28;20055;-81
2021/07/02 09:53:30;;;;;;;11.47;3.00;;;;;;;31.48;42.24;100370.44;5068955;28;20055;-82
2021/07/02 09:56:34;;;;;;;12.95;3.05;;;;;;;31.82;41.74;100368.06;5070603;28;20294;-85
2021/07/02 09:59:39;;;;;;;19.25;4.00;;;;;;;31.92;41.02;100362.53;5070698;28;20112;-82
2021/07/02 10:02:55;;;;;;;11.27;3.13;;;;;;;32.10;40.80;100362.88;5070249;28;20060;-85
2021/07/02 10:06:18;;;;;;;16.10;3.50;;;;;;;31.64;41.03;100351.91;5069262;28;20055;-78
2021/07/02 10:09:22;;;;;;;11.35;2.70;;;;;;;31.84;40.38;100357.53;5070409;28;20051;-79
2021/07/02 10:12:27;;;;;;;11.48;2.72;;;;;;;31.90;40.25;100354.47;5069767;28;20078;-82
2021/07/02 10:15:32;;;;;;;9.27;2.63;;;;;;;32.11;40.01;100342.34;5065637;28;20052;-83
2021/07/02 10:18:44;;;;;;;14.55;2.83;;;;;;;32.16;40.03;100347.06;5050525;28;20052;-83
2021/07/02 10:21:49;;;;;;;10.17;3.17;;;;;;;32.19;40.16;100348.44;5061364;28;20048;-82
2021/07/02 10:24:56;;;;;;;8.95;2.90;;;;;;;31.46;40.50;100344.91;5070444;28;20278;-82
2021/07/02 10:28:00;;;;;;;15.48;3.38;;;;;;;31.27;42.14;100336.22;5069817;28;20059;-81
2021/07/02 10:31:07;;;;;;;26.65;3.80;;;;;;;31.29;42.79;100333.16;5071303;28;20052;-84
2021/07/02 10:34:13;;;;;;;18.08;3.30;;;;;;;31.52;42.29;100336.34;5068725;28;20511;-84
2021/07/02 10:37:18;;;;;;;13.05;3.00;;;;;;;31.77;41.44;100331.97;5067358;28;20047;-81
2021/07/02 10:40:44;;;;;;;8.00;2.22;;;;;;;31.79;41.88;100327.81;5049528;28;20500;-85
2021/07/02 10:44:08;;;;;;;13.98;2.90;;;;;;;31.46;41.90;100333.81;5063135;28;20051;-77
2021/07/02 10:47:15;;;;;;;10.02;2.30;;;;;;;31.65;41.02;100326.66;5029572;28;20061;-82
2021/07/02 10:50:44;;;;;;;10.30;2.28;;;;;;;31.66;41.85;100324.72;5029827;28;20056;-84
2021/07/02 10:53:48;;;;;;;26.33;3.53;;;;;;;31.75;40.70;100318.34;5028138;28;20050;-79
2021/07/02 10:57:00;;;;;;;14.25;2.80;;;;;;;31.53;41.71;100324.13;5024086;28;20049;-79
2021/07/02 11:00:06;;;;;;;10.00;2.88;;;;;;;31.63;40.95;100328.06;5016612;28;20053;-80
2021/07/02 11:03:23;;;;;;;12.32;2.90;;;;;;;31.60;40.93;100315.56;5015761;28;20041;-84
2021/07/02 11:06:39;;;;;;;12.48;3.38;;;;;;;31.02;42.19;100313.88;5015177;28;20049;-86
2021/07/02 11:09:49;;;;;;;13.43;2.85;;;;;;;30.95;43.08;100310.53;4997290;28;20049;-85
2021/07/02 11:12:58;;;;;;;10.52;2.60;;;;;;;30.87;43.18;100311.00;5000447;28;20516;-85
2021/07/02 11:16:07;;;;;;;9.98;2.97;;;;;;;31.18;43.38;100310.09;4996695;28;20053;-85
2021/07/02 11:19:25;;;;;;;7.50;3.00;;;;;;;31.02;43.06;100318.59;5012686;28;20061;-83
2021/07/02 11:22:32;;;;;;;9.95;2.45;;;;;;;31.01;43.04;100306.66;5015407;28;20065;-82
2021/07/02 11:28:58;;;;;;;11.10;2.20;;;;;;;31.16;42.27;100301.19;5014296;28;20429;-84
2021/07/02 11:32:03;;;;;;;14.93;2.60;;;;;;;31.22;41.86;100296.50;5015531;28;20045;-86
2021/07/02 11:35:20;;;;;;;8.02;2.22;;;;;;;30.93;41.80;100296.09;4997603;28;20406;-83
2021/07/02 11:38:29;;;;;;;9.88;2.28;;;;;;;30.82;42.00;100299.88;5005777;28;20056;-85
2021/07/02 11:41:33;;;;;;;8.02;2.30;;;;;;;30.89;42.22;100300.47;5014900;28;20401;-84
2021/07/02 11:44:38;;;;;;;15.07;2.60;;;;;;;30.75;43.44;100289.03;5016853;28;20504;-85
2021/07/02 11:47:42;;;;;;;10.80;3.10;;;;;;;30.70;43.98;100290.94;5054669;28;20056;-85
2021/07/02 11:50:55;;;;;;;10.30;2.70;;;;;;;30.54;43.46;100303.03;5054980;28;20044;-85
2021/07/02 11:54:02;;;;;;;12.18;3.15;;;;;;;30.76;44.06;100296.22;5054349;28;20063;-86
2021/07/02 11:57:06;;;;;;;13.75;2.83;;;;;;;30.59;43.65;100287.25;5054896;28;20047;-83
2021/07/02 12:00:11;;;;;;;13.05;2.60;;;;;;;30.44;43.66;100289.13;5048428;28;20048;-85
2021/07/02 12:03:19;;;;;;;8.68;2.42;;;;;;;30.43;42.21;100288.28;5045153;28;20044;-86
2021/07/02 12:06:31;;;;;;;9.52;2.28;;;;;;;30.34;42.91;100286.22;5046278;28;20059;-84
2021/07/02 12:09:42;;;;;;;8.77;2.45;;;;;;;30.36;42.11;100286.84;5033188;28;20049;-87
2021/07/02 12:12:46;;;;;;;7.63;2.00;;;;;;;30.54;40.50;100284.47;5049676;28;20064;-77
2021/07/02 12:16:06;;;;;;;13.13;2.60;;;;;;;30.44;41.63;100272.50;5053952;28;20392;-78
2021/07/02 12:19:17;;;;;;;10.25;2.60;;;;;;;30.49;41.46;100275.28;5054728;28;20048;-77
2021/07/02 12:22:21;;;;;;;11.38;3.08;;;;;;;30.70;41.32;100272.38;5054200;28;20388;-79
2021/07/02 12:25:25;;;;;;;8.50;2.47;;;;;;;30.79;41.51;100279.06;5054343;28;20507;-82
2021/07/02 12:28:57;;;;;;;12.05;2.83;;;;;;;30.47;41.21;100269.19;5053143;28;20123;-81
2021/07/02 12:32:06;;;;;;;10.23;2.72;;;;;;;30.52;41.12;100263.66;5051615;28;20048;-80
2021/07/02 12:35:12;;;;;;;13.68;2.30;;;;;;;30.60;41.09;100263.16;5050447;28;20063;-83
2021/07/02 12:38:17;;;;;;;10.95;2.67;;;;;;;30.68;40.32;100254.34;5050898;28;20072;-85
2021/07/02 12:41:22;;;;;;;7.18;2.45;;;;;;;30.83;40.76;100255.28;5053224;28;20115;-82
2021/07/02 12:44:28;;;;;;;6.88;2.10;;;;;;;31.05;40.72;100248.72;5052885;28;20051;-82
2021/07/02 12:47:35;;;;;;;5.78;2.13;;;;;;;31.09;39.83;100242.38;5054716;28;20063;-85
2021/07/02 12:50:40;;;;;;;4.65;1.85;;;;;;;31.16;38.81;100237.41;5035660;28;20136;-86
2021/07/02 12:57:13;;;;;;;6.40;2.05;;;;;;;31.37;37.73;100241.91;5041929;28;20048;-83
2021/07/02 13:00:22;;;;;;;9.77;2.58;;;;;;;31.19;36.88;100234.09;5035967;28;20052;-83
2021/07/02 13:03:27;;;;;;;8.38;1.92;;;;;;;31.09;37.47;100222.97;5040887;28;20401;-86
2021/07/02 13:06:32;;;;;;;7.80;2.00;;;;;;;31.20;38.21;100221.06;5054178;28;20056;-85
2021/07/02 13:09:36;;;;;;;10.27;2.20;;;;;;;31.01;39.67;100217.94;5053712;28;20068;-84
2021/07/02 13:12:40;;;;;;;8.80;2.63;;;;;;;30.81;40.48;100215.06;5036001;28;20516;-83